createdAt,value
2023-02-02T00:01:30.237Z,6.90
2023-02-02T00:04:00.702Z,6.90
2023-02-02T00:06:28.251Z,7.00
2023-02-02T00:08:57.297Z,7.00
2023-02-02T00:11:24.784Z,7.00
2023-02-02T00:13:53.097Z,7.10
2023-02-02T00:16:29.463Z,7.20
2023-02-02T00:18:58.867Z,7.20
2023-02-02T00:21:26.271Z,7.10
2023-02-02T00:23:53.588Z,7.20
2023-02-02T00:26:21.698Z,7.20
2023-02-02T00:28:48.896Z,7.20
2023-02-02T00:31:16.131Z,7.20
2023-02-02T00:33:47.348Z,7.20
2023-02-02T00:36:14.850Z,7.20
2023-02-02T00:38:42.047Z,7.20
2023-02-02T00:41:09.248Z,7.20
2023-02-02T00:43:36.553Z,7.20
2023-02-02T00:46:03.911Z,7.10
2023-02-02T00:48:32.642Z,7.10
2023-02-02T00:50:59.750Z,7.10
2023-02-02T00:53:26.909Z,7.00
2023-02-02T00:55:54.165Z,6.90
2023-02-02T00:58:22.039Z,6.80
2023-02-02T01:00:51.507Z,6.80
2023-02-02T01:03:18.720Z,6.80
2023-02-02T01:05:45.869Z,6.80
2023-02-02T01:08:13.079Z,6.70
2023-02-02T01:10:40.206Z,6.70
2023-02-02T01:13:07.426Z,6.70
2023-02-02T01:15:34.570Z,6.70
2023-02-02T01:18:01.757Z,6.70
2023-02-02T01:20:29.484Z,6.60
2023-02-02T01:22:56.536Z,6.60
2023-02-02T01:25:24.009Z,6.60
2023-02-02T01:27:51.348Z,6.50
2023-02-02T01:30:18.657Z,6.60
2023-02-02T01:32:45.771Z,6.70
2023-02-02T01:35:12.903Z,6.60
2023-02-02T01:37:40.031Z,6.50
2023-02-02T01:40:08.034Z,6.50
2023-02-02T01:42:35.201Z,6.50
2023-02-02T01:45:14.445Z,6.60
2023-02-02T01:47:50.409Z,6.60
2023-02-02T01:50:17.943Z,6.60
2023-02-02T01:52:47.354Z,6.60
2023-02-02T01:55:15.682Z,6.50
2023-02-02T01:57:46.049Z,6.30
2023-02-02T02:00:15.256Z,6.40
2023-02-02T02:02:46.936Z,6.20
2023-02-02T02:05:14.717Z,6.20
2023-02-02T02:07:42.226Z,6.20
2023-02-02T02:10:09.939Z,6.20
2023-02-02T02:12:37.102Z,6.30
2023-02-02T02:15:23.292Z,6.30
2023-02-02T02:18:09.209Z,6.30
2023-02-02T02:21:17.347Z,6.40
2023-02-02T02:24:15.314Z,6.30
2023-02-02T02:26:51.147Z,6.40
2023-02-02T02:29:36.102Z,6.40
2023-02-02T02:32:19.582Z,6.50
2023-02-02T02:35:08.389Z,6.60
2023-02-02T02:37:55.593Z,6.60
2023-02-02T02:40:29.958Z,6.40
2023-02-02T02:42:59.663Z,6.20
2023-02-02T02:45:27.529Z,6.00
2023-02-02T02:47:55.089Z,6.00
2023-02-02T02:50:22.701Z,5.90
2023-02-02T02:52:50.967Z,5.90
2023-02-02T02:55:18.142Z,6.00
2023-02-02T02:58:05.338Z,6.00
2023-02-02T03:01:15.332Z,6.00
2023-02-02T03:04:13.325Z,6.00
2023-02-02T03:06:49.328Z,6.00
2023-02-02T03:09:22.350Z,6.00
2023-02-02T03:11:49.359Z,6.00
2023-02-02T03:14:16.413Z,6.10
2023-02-02T03:16:43.463Z,6.20
2023-02-02T03:19:10.639Z,6.20
2023-02-02T03:21:37.754Z,6.20
2023-02-02T03:24:05.159Z,6.20
2023-02-02T03:26:32.675Z,6.20
2023-02-02T03:28:59.918Z,6.20
2023-02-02T03:31:27.323Z,6.20
2023-02-02T03:33:55.257Z,6.20
2023-02-02T03:36:22.586Z,6.10
2023-02-02T03:38:49.796Z,6.10
2023-02-02T03:41:17.098Z,5.90
2023-02-02T03:43:44.260Z,5.80
2023-02-02T03:46:11.456Z,5.70
2023-02-02T03:48:39.316Z,5.70
2023-02-02T03:51:11.791Z,5.60
2023-02-02T03:53:39.725Z,5.70
2023-02-02T03:56:07.260Z,5.70
2023-02-02T03:58:34.331Z,5.70
2023-02-02T04:01:05.519Z,5.70
2023-02-02T04:03:33.014Z,5.60
2023-02-02T04:06:00.440Z,5.50
2023-02-02T04:08:28.626Z,5.30
2023-02-02T04:10:55.724Z,5.10
2023-02-02T04:13:22.759Z,4.90
2023-02-02T04:15:58.057Z,5.00
2023-02-02T04:18:25.229Z,5.00
2023-02-02T04:20:59.882Z,5.00
2023-02-02T04:23:27.312Z,4.90
2023-02-02T04:25:54.451Z,4.80
2023-02-02T04:28:23.974Z,4.80
2023-02-02T04:30:51.750Z,4.90
2023-02-02T04:33:19.180Z,5.00
2023-02-02T04:35:46.452Z,5.00
2023-02-02T04:38:13.597Z,5.00
2023-02-02T04:40:41.617Z,5.00
2023-02-02T04:43:08.729Z,5.10
2023-02-02T04:45:36.001Z,5.10
2023-02-02T04:48:03.333Z,5.10
2023-02-02T04:50:30.661Z,5.10
2023-02-02T04:52:58.110Z,5.10
2023-02-02T04:55:25.561Z,5.00
2023-02-02T04:57:53.103Z,4.90
2023-02-02T05:00:20.451Z,5.00
2023-02-02T05:02:47.926Z,5.00
2023-02-02T05:05:15.270Z,5.00
2023-02-02T05:07:42.525Z,5.00
2023-02-02T05:10:10.593Z,4.90
2023-02-02T05:12:37.797Z,5.00
2023-02-02T05:15:05.864Z,5.00
2023-02-02T05:17:33.237Z,5.10
2023-02-02T05:20:00.785Z,5.10
2023-02-02T05:22:29.084Z,5.10
2023-02-02T05:24:58.351Z,5.20
2023-02-02T05:27:26.066Z,5.30
2023-02-02T05:29:53.307Z,5.30
2023-02-02T05:32:23.118Z,5.30
2023-02-02T05:34:50.371Z,5.20
2023-02-02T05:37:17.765Z,5.20
2023-02-02T05:39:44.936Z,5.20
2023-02-02T05:42:12.071Z,5.20
2023-02-02T05:44:39.210Z,5.20
2023-02-02T05:47:06.346Z,5.20
2023-02-02T05:49:33.457Z,5.10
2023-02-02T05:52:00.835Z,5.00
2023-02-02T05:54:28.077Z,5.00
2023-02-02T05:56:56.170Z,5.00
2023-02-02T05:59:23.524Z,4.90
2023-02-02T06:01:50.675Z,4.90
2023-02-02T06:04:18.046Z,4.90
2023-02-02T06:06:45.946Z,4.90
2023-02-02T06:09:13.188Z,5.00
2023-02-02T06:11:40.504Z,4.90
2023-02-02T06:14:08.214Z,4.90
2023-02-02T06:16:35.497Z,4.90
2023-02-02T06:19:02.736Z,5.00
2023-02-02T06:21:31.719Z,5.00
2023-02-02T06:23:59.014Z,4.90
2023-02-02T06:26:27.280Z,4.90
2023-02-02T06:28:54.942Z,5.00
2023-02-02T06:31:22.497Z,5.10
2023-02-02T06:33:56.247Z,5.10
2023-02-02T06:36:27.447Z,5.10
2023-02-02T06:38:55.671Z,5.30
2023-02-02T06:41:22.795Z,5.40
2023-02-02T06:43:50.201Z,5.40
2023-02-02T06:46:17.586Z,5.40
2023-02-02T06:48:46.079Z,5.50
2023-02-02T06:51:13.203Z,5.60
2023-02-02T06:53:40.332Z,5.80
2023-02-02T06:56:09.133Z,5.90
2023-02-02T06:58:36.286Z,6.00
2023-02-02T07:01:07.913Z,6.30
2023-02-02T07:03:35.223Z,6.90
2023-02-02T07:06:22.747Z,8.00
2023-02-02T07:09:02.248Z,9.00
2023-02-02T07:11:38.216Z,9.70
2023-02-02T07:14:09.966Z,9.80
2023-02-02T07:16:37.323Z,9.30
2023-02-02T07:19:04.706Z,8.80
2023-02-02T07:21:38.310Z,8.40
2023-02-02T07:24:05.994Z,7.90
2023-02-02T07:26:36.816Z,7.70
2023-02-02T07:29:07.377Z,7.40
2023-02-02T07:31:36.643Z,7.20
2023-02-02T07:34:04.014Z,7.10
2023-02-02T07:36:31.332Z,7.10
2023-02-02T07:39:00.750Z,7.10
2023-02-02T07:41:28.097Z,7.50
2023-02-02T07:43:55.358Z,8.60
2023-02-02T07:46:22.693Z,10.00
2023-02-02T07:48:49.921Z,11.40
2023-02-02T07:51:18.119Z,12.80
2023-02-02T07:53:47.580Z,13.90
2023-02-02T07:56:22.764Z,15.00
2023-02-02T07:58:52.349Z,15.70
2023-02-02T08:01:21.455Z,16.30
2023-02-02T08:03:48.931Z,16.90
2023-02-02T08:06:21.905Z,17.60
2023-02-02T08:08:49.458Z,18.10
2023-02-02T08:11:18.370Z,18.50
2023-02-02T08:13:48.607Z,19.00
2023-02-02T08:16:16.204Z,19.50
2023-02-02T08:18:44.474Z,19.80
2023-02-02T08:21:11.843Z,20.20
2023-02-02T08:23:39.497Z,20.50
2023-02-02T08:26:20.903Z,20.70
2023-02-02T08:28:49.491Z,20.70
2023-02-02T08:31:19.394Z,20.50
2023-02-02T08:33:46.609Z,20.00
2023-02-02T08:36:14.683Z,19.70
2023-02-02T08:38:42.015Z,19.70
2023-02-02T08:41:11.011Z,20.00
2023-02-02T08:43:38.420Z,20.10
2023-02-02T08:46:07.062Z,19.90
2023-02-02T08:48:34.909Z,20.20
2023-02-02T08:51:02.890Z,20.90
2023-02-02T08:53:30.147Z,21.80
2023-02-02T08:56:04.403Z,22.90
2023-02-02T08:58:31.939Z,24.20
2023-02-02T09:01:11.962Z,23.60
2023-02-02T09:03:42.096Z,21.90
2023-02-02T09:06:10.925Z,20.80
2023-02-02T09:08:38.209Z,21.10
2023-02-02T09:11:18.392Z,20.60
2023-02-02T09:13:46.724Z,19.90
2023-02-02T09:16:16.256Z,19.10
2023-02-02T09:18:43.659Z,18.50
2023-02-02T09:21:12.464Z,18.10
2023-02-02T09:23:41.088Z,17.70
2023-02-02T09:26:22.007Z,17.10
2023-02-02T09:28:53.757Z,16.80
2023-02-02T09:31:23.495Z,16.60
2023-02-02T09:33:50.925Z,16.30
2023-02-02T09:36:20.914Z,15.80
2023-02-02T09:38:49.524Z,15.30
2023-02-02T09:41:41.365Z,14.90
2023-02-02T09:44:41.288Z,14.70
2023-02-02T09:47:22.813Z,14.50
2023-02-02T09:50:11.884Z,14.30
2023-02-02T09:53:03.450Z,14.10
2023-02-02T09:55:40.823Z,14.00
2023-02-02T09:58:11.403Z,14.00
2023-02-02T10:00:46.125Z,14.10
2023-02-02T10:03:22.590Z,14.30
2023-02-02T10:05:57.367Z,14.40
2023-02-02T10:08:34.890Z,14.40
2023-02-02T10:11:31.439Z,14.50
2023-02-02T10:14:03.001Z,14.30
2023-02-02T10:16:30.631Z,14.00
2023-02-02T10:19:04.775Z,13.90
2023-02-02T10:22:09.023Z,13.90
2023-02-02T10:24:36.330Z,13.70
2023-02-02T10:27:16.987Z,13.80
2023-02-02T10:29:49.184Z,14.80
2023-02-02T10:32:24.846Z,16.00
2023-02-02T10:35:12.526Z,16.60
2023-02-02T10:37:57.422Z,16.60
2023-02-02T10:41:00.496Z,16.50
2023-02-02T10:43:48.886Z,17.10
2023-02-02T10:46:48.811Z,18.40
2023-02-02T10:49:39.292Z,19.80
2023-02-02T10:52:12.234Z,21.30
2023-02-02T10:55:11.687Z,21.80
2023-02-02T10:57:41.896Z,21.30
2023-02-02T11:00:26.099Z,21.00
2023-02-02T11:02:53.877Z,20.20
2023-02-02T11:05:41.900Z,19.00
2023-02-02T11:08:25.363Z,18.10
2023-02-02T11:10:53.407Z,17.20
2023-02-02T11:13:32.951Z,16.80
2023-02-02T11:16:43.104Z,16.70
2023-02-02T11:19:24.831Z,17.20
2023-02-02T11:21:59.294Z,17.60
2023-02-02T11:24:40.798Z,17.40
2023-02-02T11:27:15.757Z,17.10
2023-02-02T11:29:46.000Z,16.80
2023-02-02T11:32:51.691Z,16.30
2023-02-02T11:35:23.685Z,15.50
2023-02-02T11:37:57.751Z,15.10
2023-02-02T11:40:42.765Z,14.80
2023-02-02T11:43:41.492Z,14.60
2023-02-02T11:46:18.068Z,14.50
2023-02-02T11:49:08.611Z,14.30
2023-02-02T11:51:39.344Z,14.10
2023-02-02T11:54:13.282Z,13.80
2023-02-02T11:56:42.800Z,13.50
2023-02-02T11:59:37.766Z,13.50
2023-02-02T12:02:20.509Z,13.50
2023-02-02T12:04:55.119Z,13.50
2023-02-02T12:07:29.724Z,13.40
2023-02-02T12:10:00.552Z,13.10
2023-02-02T12:13:03.820Z,13.10
2023-02-02T12:15:56.668Z,13.10
2023-02-02T12:18:56.516Z,13.10
2023-02-02T12:21:47.672Z,13.00
2023-02-02T12:24:32.911Z,13.10
2023-02-02T12:27:13.885Z,13.10
2023-02-02T12:30:11.404Z,12.90
2023-02-02T12:33:05.122Z,12.80
2023-02-02T12:36:01.773Z,12.50
2023-02-02T12:39:10.088Z,12.40
2023-02-02T12:41:53.070Z,12.40
2023-02-02T12:44:56.508Z,12.30
2023-02-02T12:47:44.632Z,12.40
2023-02-02T12:50:34.304Z,12.50
2023-02-02T12:53:25.573Z,12.40
2023-02-02T12:56:16.915Z,12.20
2023-02-02T12:59:29.748Z,12.10
2023-02-02T13:02:09.224Z,12.20
2023-02-02T13:05:06.695Z,12.20
2023-02-02T13:07:47.658Z,12.30
2023-02-02T13:10:19.965Z,12.50
2023-02-02T13:13:24.779Z,12.50
2023-02-02T13:15:54.969Z,12.50
2023-02-02T13:18:52.331Z,12.60
2023-02-02T13:21:21.030Z,12.50
2023-02-02T13:23:54.373Z,12.60
2023-02-02T13:26:33.033Z,12.60
2023-02-02T13:29:48.196Z,12.70
2023-02-02T13:32:25.623Z,12.70
2023-02-02T13:35:02.886Z,12.70
2023-02-02T13:37:50.445Z,12.50
2023-02-02T13:40:26.810Z,12.50
2023-02-02T13:43:22.906Z,12.50
2023-02-02T13:46:09.100Z,12.50
2023-02-02T13:49:29.506Z,12.60
2023-02-02T13:52:32.223Z,12.60
2023-02-02T13:55:34.783Z,12.50
2023-02-02T14:00:41.722Z,12.30
2023-02-02T14:03:29.972Z,12.30
2023-02-02T14:06:10.582Z,12.50
2023-02-02T14:08:38.037Z,12.70
2023-02-02T14:11:07.970Z,12.80
2023-02-02T14:14:00.473Z,12.90
2023-02-02T14:16:33.414Z,13.00
2023-02-02T14:19:04.952Z,13.10
2023-02-02T14:21:32.507Z,13.20
2023-02-02T14:24:04.707Z,13.40
2023-02-02T14:26:49.368Z,13.40
2023-02-02T14:29:36.482Z,13.50
2023-02-02T14:32:32.808Z,13.70
2023-02-02T14:35:27.113Z,13.70
2023-02-02T14:38:36.761Z,13.70
2023-02-02T14:41:43.316Z,13.70
2023-02-02T14:44:10.826Z,13.70
2023-02-02T14:46:48.246Z,13.60
2023-02-02T14:49:25.995Z,13.50
2023-02-02T14:51:58.289Z,13.50
2023-02-02T14:54:36.618Z,13.30
2023-02-02T14:57:20.736Z,13.30
2023-02-02T14:59:48.068Z,13.20
2023-02-02T15:02:23.776Z,13.20
2023-02-02T15:04:51.641Z,13.10
2023-02-02T15:07:38.527Z,13.10
2023-02-02T15:10:07.342Z,13.00
2023-02-02T15:12:44.109Z,12.90
2023-02-02T15:15:21.580Z,12.90
2023-02-02T15:18:01.182Z,12.80
2023-02-02T15:20:40.713Z,12.70
2023-02-02T15:23:17.571Z,12.60
2023-02-02T15:26:10.304Z,12.50
2023-02-02T15:28:52.412Z,12.50
2023-02-02T15:31:41.301Z,12.30
2023-02-02T15:34:37.809Z,12.30
2023-02-02T15:37:11.129Z,12.30
2023-02-02T15:39:49.490Z,12.20
2023-02-02T15:42:59.918Z,12.10
2023-02-02T15:45:50.539Z,12.00
2023-02-02T15:48:27.031Z,11.90
2023-02-02T15:50:57.728Z,11.80
2023-02-02T15:53:45.993Z,11.70
2023-02-02T15:56:29.918Z,11.60
2023-02-02T15:58:58.918Z,11.50
2023-02-02T16:01:26.926Z,11.40
2023-02-02T16:04:13.759Z,11.40
2023-02-02T16:06:41.171Z,11.30
2023-02-02T16:09:10.594Z,11.40
2023-02-02T16:11:41.685Z,11.50
2023-02-02T16:14:14.285Z,11.60
2023-02-02T16:16:41.770Z,11.70
2023-02-02T16:19:08.999Z,11.80
2023-02-02T16:21:38.380Z,11.80
2023-02-02T16:24:06.820Z,11.90
2023-02-02T16:26:35.503Z,11.80
2023-02-02T16:29:02.980Z,11.70
2023-02-02T16:31:31.563Z,11.70
2023-02-02T16:34:00.792Z,11.60
2023-02-02T16:36:31.998Z,11.70
2023-02-02T16:39:01.165Z,11.70
2023-02-02T16:41:33.840Z,11.70
2023-02-02T16:44:44.081Z,11.60
2023-02-02T16:47:38.051Z,11.60
2023-02-02T16:50:10.666Z,11.60
2023-02-02T16:52:52.319Z,11.60
2023-02-02T16:55:19.777Z,11.60
2023-02-02T16:57:47.453Z,11.60
2023-02-02T17:00:25.699Z,11.70
2023-02-02T17:02:57.549Z,11.70
2023-02-02T17:05:29.101Z,11.60
2023-02-02T17:08:08.046Z,11.60
2023-02-02T17:10:39.766Z,11.60
2023-02-02T17:13:32.506Z,11.60
2023-02-02T17:15:59.921Z,11.60
2023-02-02T17:18:28.406Z,11.60
2023-02-02T17:20:58.168Z,11.50
2023-02-02T17:23:27.156Z,11.50
2023-02-02T17:25:54.277Z,11.50
2023-02-02T17:28:23.714Z,11.50
2023-02-02T17:31:01.442Z,11.50
2023-02-02T17:33:28.718Z,11.40
2023-02-02T17:35:56.699Z,11.40
2023-02-02T17:38:24.608Z,11.50
2023-02-02T17:40:51.967Z,11.50
2023-02-02T17:43:19.100Z,11.50
2023-02-02T17:45:46.485Z,11.50
2023-02-02T17:48:14.693Z,11.50
2023-02-02T17:50:42.154Z,11.50
2023-02-02T17:53:15.700Z,11.40
2023-02-02T17:55:43.478Z,11.30
2023-02-02T17:58:13.277Z,11.30
2023-02-02T18:00:40.844Z,11.30
2023-02-02T18:03:23.782Z,11.40
2023-02-02T18:05:52.395Z,11.40
2023-02-02T18:08:19.778Z,11.50
2023-02-02T18:10:49.121Z,11.50
2023-02-02T18:13:19.725Z,11.40
2023-02-02T18:15:47.113Z,11.30
2023-02-02T18:18:14.209Z,11.20
2023-02-02T18:20:50.685Z,11.20
2023-02-02T18:23:18.317Z,11.20
2023-02-02T18:25:45.968Z,11.20
2023-02-02T18:28:18.178Z,11.20
2023-02-02T18:30:46.970Z,11.10
2023-02-02T18:33:14.730Z,11.10
2023-02-02T18:35:42.783Z,11.10
2023-02-02T18:38:10.046Z,11.10
2023-02-02T18:40:38.477Z,11.00
2023-02-02T18:43:07.843Z,11.00
2023-02-02T18:45:35.921Z,11.00
2023-02-02T18:48:04.157Z,11.00
2023-02-02T18:50:31.432Z,11.00
2023-02-02T18:52:58.957Z,11.00
2023-02-02T18:55:27.357Z,11.10
2023-02-02T18:57:54.897Z,11.00
2023-02-02T19:00:26.179Z,11.00
2023-02-02T19:02:59.040Z,10.90
2023-02-02T19:05:50.162Z,10.90
2023-02-02T19:08:23.686Z,10.80
2023-02-02T19:10:56.209Z,10.90
2023-02-02T19:13:23.252Z,11.00
2023-02-02T19:15:50.459Z,10.90
2023-02-02T19:18:22.335Z,10.90
2023-02-02T19:20:53.200Z,10.90
2023-02-02T19:23:23.889Z,10.90
2023-02-02T19:25:51.737Z,10.90
2023-02-02T19:28:23.726Z,10.90
2023-02-02T19:30:53.425Z,10.90
2023-02-02T19:33:21.049Z,10.90
2023-02-02T19:35:50.165Z,10.80
2023-02-02T19:38:23.251Z,10.90
2023-02-02T19:40:51.703Z,10.80
2023-02-02T19:43:29.862Z,10.80
2023-02-02T19:45:59.258Z,10.70
2023-02-02T19:48:28.919Z,10.60
2023-02-02T19:50:57.331Z,10.50
2023-02-02T19:53:41.205Z,10.40
2023-02-02T19:56:27.203Z,10.30
2023-02-02T19:58:54.785Z,10.20
2023-02-02T20:01:33.951Z,10.10
2023-02-02T20:04:05.047Z,10.20
2023-02-02T20:06:58.695Z,10.20
2023-02-02T20:09:47.889Z,10.20
2023-02-02T20:12:48.111Z,10.10
2023-02-02T20:15:35.294Z,10.00
2023-02-02T20:18:11.980Z,10.00
2023-02-02T20:20:40.366Z,9.90
2023-02-02T20:23:19.470Z,10.00
2023-02-02T20:25:46.766Z,9.90
2023-02-02T20:28:47.688Z,9.90
2023-02-02T20:31:19.729Z,9.90
2023-02-02T20:33:58.028Z,9.80
2023-02-02T20:36:40.935Z,9.80
2023-02-02T20:39:35.908Z,9.80
2023-02-02T20:42:03.203Z,9.90
2023-02-02T20:44:30.762Z,9.90
2023-02-02T20:46:58.518Z,10.00
2023-02-02T20:49:26.852Z,10.00
2023-02-02T20:51:54.843Z,10.00
2023-02-02T20:54:22.836Z,10.00
2023-02-02T20:56:50.396Z,9.90
2023-02-02T20:59:17.627Z,9.80
2023-02-02T21:01:45.080Z,9.80
2023-02-02T21:04:12.217Z,9.60
2023-02-02T21:06:40.209Z,9.50
2023-02-02T21:09:09.264Z,9.40
2023-02-02T21:11:36.404Z,9.20
2023-02-02T21:14:03.591Z,9.00
2023-02-02T21:16:30.684Z,8.80
2023-02-02T21:18:58.189Z,8.70
2023-02-02T21:21:25.479Z,8.50
2023-02-02T21:23:53.052Z,8.40
2023-02-02T21:26:22.313Z,8.40
2023-02-02T21:28:51.190Z,8.40
2023-02-02T21:31:18.799Z,8.40
2023-02-02T21:33:49.242Z,8.40
2023-02-02T21:36:37.912Z,8.30
2023-02-02T21:39:29.875Z,8.10
2023-02-02T21:42:09.720Z,8.00
2023-02-02T21:44:38.488Z,8.00
2023-02-02T21:47:29.204Z,8.10
2023-02-02T21:49:56.654Z,8.30
2023-02-02T21:52:24.001Z,8.30
2023-02-02T21:54:51.292Z,8.20
2023-02-02T21:57:22.777Z,8.30
2023-02-02T21:59:58.822Z,8.30
2023-02-02T22:02:42.569Z,8.40
2023-02-02T22:05:23.178Z,8.50
2023-02-02T22:07:50.762Z,8.40
2023-02-02T22:10:39.149Z,8.20
2023-02-02T22:13:18.976Z,8.00
2023-02-02T22:15:47.616Z,7.90
2023-02-02T22:18:16.574Z,7.90
2023-02-02T22:20:47.032Z,8.00
2023-02-02T22:23:24.748Z,7.90
2023-02-02T22:25:53.532Z,7.90
2023-02-02T22:28:33.085Z,7.90
2023-02-02T22:31:01.073Z,7.80
2023-02-02T22:33:28.335Z,7.90
2023-02-02T22:35:55.346Z,7.90
2023-02-02T22:38:24.074Z,8.00
2023-02-02T22:40:52.524Z,8.10
2023-02-02T22:43:20.272Z,8.20
2023-02-02T22:45:47.471Z,8.20
2023-02-02T22:48:14.874Z,8.20
2023-02-02T22:50:41.888Z,8.30
2023-02-02T22:53:09.078Z,8.40
2023-02-02T22:55:36.536Z,8.40
2023-02-02T22:58:04.108Z,8.40
2023-02-02T23:00:33.120Z,8.40
2023-02-02T23:03:00.466Z,8.50
2023-02-02T23:05:27.900Z,8.40
2023-02-02T23:07:56.840Z,8.50
2023-02-02T23:10:26.115Z,8.50
2023-02-02T23:12:55.120Z,8.50
2023-02-02T23:15:22.634Z,8.50
2023-02-02T23:17:49.880Z,8.60
2023-02-02T23:20:17.137Z,8.60
2023-02-02T23:22:44.303Z,8.60
2023-02-02T23:25:12.183Z,8.50
2023-02-02T23:27:40.469Z,8.50
2023-02-02T23:30:08.402Z,8.60
2023-02-02T23:32:35.708Z,8.60
2023-02-02T23:35:03.188Z,8.50
2023-02-02T23:37:30.236Z,8.50
2023-02-02T23:39:57.317Z,8.50
2023-02-02T23:42:25.805Z,8.50
2023-02-02T23:44:53.102Z,8.50
2023-02-02T23:47:20.197Z,8.60
2023-02-02T23:49:48.624Z,8.60
2023-02-02T23:52:15.687Z,8.50
2023-02-02T23:54:43.104Z,8.40
2023-02-02T23:57:10.200Z,8.40
2023-02-02T23:59:37.464Z,8.40
